Hornsey, United Kingdom
Current Conditions -  °F | °C
As of 4:20 PM on Wednesday 26 Nov 2014 (Local Time) from EGLC Reporting Station
Haze Haze  
Wind Chill: 50°   Ceiling: 300
Heat Index: 50°   Visibility: 0.75mi
Dew Point: 48°   Wind: 3mph
Humidity: 94%   Direction: 30°NNE
Pressure: 29.8"   Gusts: NA
Location:  51.58°N, 0.1°W
Report Text: EGLC 261620Z 03003KT 1200 R09/P1500 R27/P1500 BR SCT002 BKN003 10/09 Q1009
Loading
Personal Weather Stations






























Interactive Weather Map New forecast layout! Learn more

10-Day Weather Forecast

Advertisements
Track Severe Weather on mobile